This is the latest recevied weather packets stored in our database for station/object Ostrach. If no packets are shown the sender has not sent any weather packets the latest 1 day(s).
| Time | Temp. | Humidity | Pressure | Rain* | Wind** | Luminosity | Snow |
|---|---|---|---|---|---|---|---|
| 1777978931 | 16.67° C | 66% | 1005.4 hPa | 0 mm | 0 m/s | - | - |
| 1777977131 | 16.11° C | 70% | 1005.3 hPa | 0 mm | 0.89 m/s, 294° | - | - |
| 1777975332 | 16.11° C | 72% | 1005.5 hPa | 0 mm | 1.34 m/s, 294° | - | - |
| 1777973532 | 16.11° C | 69% | 1005.6 hPa | 0 mm | 0 m/s | - | - |
| 1777971732 | 15.56° C | 71% | 1005.8 hPa | 0 mm | 0.45 m/s, 294° | - | - |
| 1777969931 | 15° C | 74% | 1005.8 hPa | 0 mm | 0 m/s | - | - |
| 1777968131 | 15° C | 74% | 1006.1 hPa | 0 mm | 0 m/s | - | - |
| 1777966330 | 14.44° C | 76% | 1006.1 hPa | 0 mm | 0 m/s | - | - |
| 1777964532 | 12.78° C | 80% | 1006.5 hPa | 0 mm | 0.45 m/s, 294° | - | - |
| 1777962731 | 11.11° C | 84% | 1006.6 hPa | 0 mm | 0 m/s | - | - |
| 1777960932 | 8.33° C | 91% | 1006.7 hPa | 0 mm | 0 m/s | - | - |
| 1777959131 | 6.11° C | 92% | 1006.8 hPa | 0 mm | 0 m/s | - | - |
| 1777957331 | 5.56° C | 91% | 1006.8 hPa | 0 mm | 0 m/s | - | - |
| 1777955531 | 5° C | 89% | 1006.9 hPa | 0 mm | 0 m/s | - | - |
| 1777953731 | 5.56° C | 89% | 1007.1 hPa | 0 mm | 0 m/s | - | - |
| 1777951931 | 5.56° C | 89% | 1007.1 hPa | 0 mm | 0 m/s | - | - |
| 1777950133 | 6.11° C | 88% | 1007.3 hPa | 0 mm | 0 m/s | - | - |
| 1777948331 | 6.67° C | 88% | 1007.6 hPa | 0 mm | 0 m/s | - | - |
| 1777946531 | 6.67° C | 88% | 1007.7 hPa | 0 mm | 0 m/s | - | - |
| 1777944731 | 6.67° C | 86% | 1008 hPa | 0 mm | 0 m/s | - | - |
| 1777942931 | 7.22° C | 86% | 1008.3 hPa | 0 mm | 0 m/s | - | - |
| 1777941128 | 8.33° C | 84% | 1008.7 hPa | 0 mm | 0 m/s | - | - |
| 1777939330 | 8.89° C | 82% | 1008.8 hPa | 0 mm | 0 m/s | - | - |
* Rain since midnight (hover to see other rain measurements)
** Current wind speed in m/s (hover to see current wind gust speed)